createdAt,value
2023-05-19T00:02:04.452Z,547.92157
2023-05-19T00:07:05.958Z,530.66667
2023-05-19T00:12:07.325Z,519.70093
2023-05-19T00:17:08.824Z,519.70093
2023-05-19T00:22:10.105Z,514.37037
2023-05-19T00:27:11.673Z,509.13761
2023-05-19T00:32:13.136Z,504
2023-05-19T00:37:14.552Z,494
2023-05-19T00:42:16.344Z,489.13274
2023-05-19T00:47:17.717Z,509.13761
2023-05-19T00:52:19.160Z,509.13761
2023-05-19T00:57:20.636Z,504
2023-05-19T01:02:22.269Z,498.95495
2023-05-19T01:07:23.693Z,498.95495
2023-05-19T01:12:25.039Z,494
2023-05-19T01:17:26.597Z,489.13274
2023-05-19T01:22:27.883Z,470.49573
2023-05-19T01:27:29.843Z,466.0339
2023-05-19T01:32:31.269Z,453.09091
2023-05-19T01:37:32.613Z,440.77419
2023-05-19T01:42:34.458Z,432.88889
2023-05-19T01:47:36.024Z,421.51938
2023-05-19T01:52:37.336Z,410.66667
2023-05-19T01:57:38.831Z,407.15789
2023-05-19T02:02:40.220Z,410.66667
2023-05-19T02:07:41.723Z,407.15789
2023-05-19T02:12:43.113Z,421.51938
2023-05-19T02:17:44.745Z,421.51938
2023-05-19T02:22:46.158Z,425.25
2023-05-19T02:27:47.954Z,417.84615
2023-05-19T02:32:49.354Z,421.51938
2023-05-19T02:37:50.806Z,421.51938
2023-05-19T02:42:52.985Z,417.84615
2023-05-19T02:47:54.542Z,390.37681
2023-05-19T02:52:55.833Z,407.15789
2023-05-19T02:57:57.168Z,390.37681
2023-05-19T03:02:58.548Z,400.2963
2023-05-19T03:08:00.262Z,421.51938
2023-05-19T03:13:01.523Z,444.81301
2023-05-19T03:18:02.814Z,440.77419
2023-05-19T03:23:04.189Z,489.13274
2023-05-19T03:28:05.932Z,489.13274
2023-05-19T03:33:07.892Z,494
2023-05-19T03:38:09.845Z,498.95495
2023-05-19T03:43:11.776Z,498.95495
2023-05-19T03:48:13.413Z,509.13761
2023-05-19T03:53:15.005Z,519.70093
2023-05-19T03:58:16.541Z,525.13208
2023-05-19T04:03:18.137Z,519.70093
2023-05-19T04:08:19.953Z,509.13761
2023-05-19T04:13:21.481Z,498.95495
2023-05-19T04:18:22.905Z,504
2023-05-19T04:23:24.175Z,519.70093
2023-05-19T04:28:25.449Z,494
2023-05-19T04:33:27.033Z,509.13761
2023-05-19T04:38:28.634Z,494
2023-05-19T04:43:30.475Z,479.65217
2023-05-19T04:48:31.849Z,484.35088
2023-05-19T04:53:33.112Z,470.49573
2023-05-19T04:58:34.439Z,470.49573
2023-05-19T05:03:36.111Z,466.0339
2023-05-19T05:08:37.486Z,498.95495
2023-05-19T05:13:39.064Z,504
2023-05-19T05:18:42.228Z,484.35088
2023-05-19T05:23:45.937Z,494
2023-05-19T05:28:47.651Z,475.03448
2023-05-19T05:33:49.055Z,479.65217
2023-05-19T05:38:50.403Z,525.13208
2023-05-19T05:43:52.167Z,536.30769
2023-05-19T05:48:53.805Z,489.13274
2023-05-19T05:53:55.646Z,536.30769
2023-05-19T05:58:57.386Z,536.30769
2023-05-19T06:03:59.021Z,566.22222
2023-05-19T06:09:00.639Z,536.30769
2023-05-19T06:14:02.250Z,560
2023-05-19T06:19:03.942Z,579.05155
2023-05-19T06:24:05.778Z,585.66667
2023-05-19T06:29:07.369Z,599.31915
2023-05-19T06:34:08.966Z,585.66667
2023-05-19T06:39:10.526Z,585.66667
2023-05-19T06:44:11.951Z,592.42105
2023-05-19T06:49:13.245Z,592.42105
2023-05-19T06:54:14.550Z,613.56522
2023-05-19T06:59:15.797Z,628.44444
2023-05-19T07:04:17.432Z,628.44444
2023-05-19T07:09:19.043Z,606.36559
2023-05-19T07:14:21.221Z,620.92308
2023-05-19T07:19:22.869Z,636.13483
2023-05-19T07:24:24.569Z,620.92308
2023-05-19T07:29:26.133Z,620.92308
2023-05-19T07:34:27.816Z,606.36559
2023-05-19T07:39:29.446Z,606.36559
2023-05-19T07:44:31.608Z,579.05155
2023-05-19T07:49:33.476Z,613.56522
2023-05-19T07:54:34.715Z,606.36559
2023-05-19T07:59:36.072Z,592.42105
2023-05-19T08:04:37.480Z,606.36559
2023-05-19T08:09:38.779Z,592.42105
2023-05-19T08:14:40.205Z,606.36559
2023-05-19T08:19:41.504Z,606.36559
2023-05-19T08:24:42.781Z,592.42105
2023-05-19T08:29:44.379Z,613.56522
2023-05-19T08:34:45.914Z,620.92308
2023-05-19T08:39:47.521Z,652.04598
2023-05-19T08:44:49.465Z,628.44444
2023-05-19T08:49:51.143Z,652.04598
2023-05-19T08:54:52.700Z,620.92308
2023-05-19T08:59:54.216Z,620.92308
2023-05-19T09:04:55.604Z,636.13483
2023-05-19T09:09:57.157Z,0
2023-05-19T09:14:58.536Z,0
2023-05-19T09:20:00.215Z,0
2023-05-19T09:25:01.879Z,0
2023-05-19T09:30:03.548Z,0
2023-05-19T09:35:05.371Z,0
2023-05-19T09:40:06.964Z,0
2023-05-19T09:45:09.177Z,0
2023-05-19T09:50:10.933Z,0
2023-05-19T09:55:12.513Z,0
2023-05-19T10:00:14.190Z,0
2023-05-19T10:05:15.837Z,0
2023-05-19T10:10:17.708Z,0
2023-05-19T10:15:21.403Z,0
2023-05-19T10:20:24.800Z,0
2023-05-19T10:25:26.624Z,0
2023-05-19T10:30:28.261Z,0
2023-05-19T10:35:30.331Z,0
2023-05-19T10:40:33.085Z,0
2023-05-19T10:45:35.448Z,0
2023-05-19T10:50:37.355Z,0
2023-05-19T10:55:38.620Z,0
2023-05-19T11:00:39.941Z,0
2023-05-19T11:05:41.504Z,0
2023-05-19T11:10:42.821Z,0
2023-05-19T11:15:44.230Z,0
2023-05-19T11:20:45.580Z,0
2023-05-19T11:25:47.058Z,0
2023-05-19T11:30:48.457Z,0
2023-05-19T11:35:56.486Z,0
2023-05-19T11:40:58.042Z,0
2023-05-19T11:46:00.418Z,0
2023-05-19T11:51:01.973Z,0
2023-05-19T11:56:03.622Z,0
2023-05-19T12:01:05.612Z,0
2023-05-19T12:06:07.188Z,0
2023-05-19T12:11:08.829Z,0
2023-05-19T12:16:10.460Z,0
2023-05-19T12:21:12.043Z,0
2023-05-19T12:26:13.552Z,0
2023-05-19T12:31:15.236Z,0
2023-05-19T12:36:16.977Z,0
2023-05-19T12:41:18.740Z,0
2023-05-19T12:46:20.323Z,0
2023-05-19T12:51:22.105Z,0
2023-05-19T12:56:24.116Z,0
2023-05-19T13:01:25.852Z,0
2023-05-19T13:06:27.586Z,0
2023-05-19T13:11:29.161Z,0
2023-05-19T13:16:31.002Z,0
2023-05-19T13:21:32.452Z,0
2023-05-19T13:26:33.884Z,0
2023-05-19T13:31:35.589Z,0
2023-05-19T13:36:37.368Z,0
2023-05-19T13:41:38.717Z,0
2023-05-19T13:46:45.322Z,0
2023-05-19T13:51:48.106Z,0
2023-05-19T13:56:49.774Z,0
2023-05-19T14:01:51.394Z,0
2023-05-19T14:06:52.873Z,0
2023-05-19T14:11:54.374Z,0
2023-05-19T14:16:55.709Z,0
2023-05-19T14:21:57.326Z,0
2023-05-19T14:26:58.659Z,0
2023-05-19T14:32:00.266Z,0
2023-05-19T14:37:01.737Z,0
2023-05-19T14:42:02.994Z,0
2023-05-19T14:47:04.503Z,0
2023-05-19T14:52:05.992Z,0
2023-05-19T14:57:07.702Z,0
2023-05-19T15:02:09.717Z,0
2023-05-19T15:07:11.409Z,0
2023-05-19T15:12:12.924Z,0
2023-05-19T15:17:14.910Z,660.27907
2023-05-19T15:22:16.676Z,620.92308
2023-05-19T15:27:18.353Z,585.66667
2023-05-19T15:32:19.979Z,566.22222
2023-05-19T15:37:22.244Z,553.90099
2023-05-19T15:42:23.863Z,547.92157
2023-05-19T15:47:25.469Z,514.37037
2023-05-19T15:52:27.206Z,530.66667
2023-05-19T15:57:28.738Z,585.66667
2023-05-19T16:02:30.374Z,585.66667
2023-05-19T16:07:31.971Z,553.90099
2023-05-19T16:12:33.673Z,572.57143
2023-05-19T16:17:35.057Z,566.22222
2023-05-19T16:22:36.324Z,566.22222
2023-05-19T16:27:37.721Z,566.22222
2023-05-19T16:32:39.122Z,525.13208
2023-05-19T16:37:40.615Z,509.13761
2023-05-19T16:42:41.896Z,489.13274
2023-05-19T16:47:43.343Z,484.35088
2023-05-19T16:52:45.207Z,475.03448
2023-05-19T16:57:46.768Z,475.03448
2023-05-19T17:02:48.578Z,479.65217
2023-05-19T17:07:50.218Z,479.65217
2023-05-19T17:12:51.777Z,470.49573
2023-05-19T17:17:53.383Z,470.49573
2023-05-19T17:22:55.046Z,470.49573
2023-05-19T17:27:56.618Z,475.03448
2023-05-19T17:32:58.266Z,479.65217
2023-05-19T17:37:59.968Z,466.0339
2023-05-19T17:43:01.783Z,457.33333
2023-05-19T17:48:03.419Z,440.77419
2023-05-19T17:53:05.054Z,436.8
2023-05-19T17:58:06.635Z,444.81301
2023-05-19T18:03:08.337Z,440.77419
2023-05-19T18:08:09.995Z,432.88889
2023-05-19T18:13:11.273Z,432.88889
2023-05-19T18:18:12.958Z,421.51938
2023-05-19T18:23:14.326Z,403.70149
2023-05-19T18:28:15.695Z,403.70149
2023-05-19T18:33:17.336Z,403.70149
2023-05-19T18:38:19.448Z,387.16547
2023-05-19T18:43:21.289Z,407.15789
2023-05-19T18:48:22.765Z,417.84615
2023-05-19T18:53:24.456Z,425.25
2023-05-19T18:58:26.313Z,380.87943
2023-05-19T19:03:27.816Z,400.2963
2023-05-19T19:08:29.460Z,432.88889
2023-05-19T19:13:30.807Z,403.70149
2023-05-19T19:18:32.521Z,407.15789
2023-05-19T19:23:34.157Z,417.84615
2023-05-19T19:28:35.830Z,444.81301
2023-05-19T19:33:37.355Z,444.81301
2023-05-19T19:38:38.717Z,421.51938
2023-05-19T19:43:41.998Z,429.03937
2023-05-19T19:53:54.132Z,429.03937
2023-05-19T19:58:56.631Z,414.22901
2023-05-19T20:03:59.275Z,390.37681
2023-05-19T20:09:00.909Z,371.77778
2023-05-19T20:19:12.993Z,354.66667
2023-05-19T20:24:14.918Z,357.42282
2023-05-19T20:29:16.376Z,368.82759
2023-05-19T20:34:17.942Z,387.16547
2023-05-19T20:39:19.498Z,390.37681
2023-05-19T20:44:20.979Z,393.63504
2023-05-19T20:49:22.580Z,396.94118
2023-05-19T20:54:24.204Z,421.51938
2023-05-19T20:59:25.932Z,429.03937
2023-05-19T21:04:27.575Z,414.22901
2023-05-19T21:09:29.416Z,414.22901
2023-05-19T21:14:30.986Z,414.22901
2023-05-19T21:19:32.629Z,410.66667
2023-05-19T21:24:34.244Z,410.66667
2023-05-19T21:29:35.888Z,400.2963
2023-05-19T21:34:37.665Z,407.15789
2023-05-19T21:39:39.151Z,407.15789
2023-05-19T21:44:40.474Z,407.15789
2023-05-19T21:49:41.899Z,407.15789
2023-05-19T21:54:43.253Z,410.66667
2023-05-19T21:59:44.557Z,417.84615
2023-05-19T22:04:46.001Z,429.03937
2023-05-19T22:09:48.907Z,429.03937
2023-05-19T22:14:50.339Z,429.03937
2023-05-19T22:19:51.666Z,429.03937
2023-05-19T22:24:53.309Z,429.03937
2023-05-19T22:29:54.584Z,429.03937
2023-05-19T22:34:56.055Z,429.03937
2023-05-19T22:39:57.414Z,432.88889
2023-05-19T22:44:58.662Z,429.03937
2023-05-19T22:50:00.229Z,436.8
2023-05-19T22:55:01.884Z,429.03937
2023-05-19T23:00:03.485Z,421.51938
2023-05-19T23:05:05.259Z,421.51938
2023-05-19T23:10:06.770Z,425.25
2023-05-19T23:15:08.278Z,429.03937
2023-05-19T23:20:09.732Z,429.03937
2023-05-19T23:25:11.304Z,448.91803
2023-05-19T23:30:12.853Z,453.09091
2023-05-19T23:35:14.485Z,466.0339
2023-05-19T23:40:16.017Z,466.0339
2023-05-19T23:45:17.725Z,466.0339
2023-05-19T23:50:19.287Z,457.33333
2023-05-19T23:55:20.861Z,457.33333
